Nearby METAR Reports

 

ESTA - Ängelholm, Sweden
Distance from station: SSV 17km
Uppdaterad: 2021-03-01 05:20
Freezing fog, Genommulet
Freezing fog, Genommulet
 Vind från SO
Vind: SO 2 km/h
Temperatur: 0°C
Daggpunkt: 0°C
Luftfuktighet: 100%
Barometer: 1032 hPa
Summering: Freezing Fog
Clouds: Genommulet
Visibility: 0 km
Cloud details: Genommulet 30 m
2021/03/01 04:20 ESTA 010420Z AUTO 13001KT 0100 R14/0500N R32/0450N FZFG VV001 M00/M00 Q1032
ESMT - Halmstad, Sweden
Distance from station: N 26km
Uppdaterad: 2021-03-01 05:20
Fog, Genommulet
Fog, Genommulet
 Vind från SSV
Vind: SSV 6 km/h
Temperatur: 1°C
Daggpunkt: 0°C
Luftfuktighet: 93%
Barometer: 1032 hPa
Summering: Fog
Clouds: Genommulet
Visibility: 0 km
Cloud details: Genommulet 30 m
2021/03/01 04:20 ESMT 010420Z AUTO 21003KT 0150 R01/0650U R19/0700N FG VV001 01/00 Q1032
 
ESTL - Ljungbyhed, Sweden
Distance from station: SSO 45km
Uppdaterad: 2021-03-01 05:20
Freezing fog, Övervägande molnigt
Freezing fog, Övervägande molnigt
 Vind från O
Vind: O 4 km/h
Temperatur: -1°C
Daggpunkt: -1°C
Luftfuktighet: 100%
Barometer: 1032 hPa
Summering: Freezing Fog
Clouds: Övervägande molnigt
Visibility: 0 km
Cloud details: Övervägande molnigt 61 m
2021/03/01 04:20 ESTL 010420Z AUTO 09002KT 0300 R29L/0900N FZFG BKN002/// M01/M01 Q1032
EKCH - Copenhagen/Kastrup, Denmark
Distance from station: S 92km
Uppdaterad: 2021-03-01 05:20
Fog, Genommulet
Fog, Genommulet
 Vind från VSV
Vind: VSV 9 km/h
Temperatur: 0°C
Wind Chill: -3°C
Daggpunkt: 0°C
Luftfuktighet: 100%
Barometer: 1033 hPa
Summering: Fog
Clouds: Genommulet
Visibility: 0 km
Cloud details: Genommulet 61 m
2021/03/01 04:20 EKCH 010420Z 25005KT 0200 R22L/0400N R04L/0650N R12/0650N FG VV002 M00/M00 Q1033 TEMPO 400 SCT002
 
ESMK - Kristianstad/Everöd, Sweden
Distance from station: SO 93km
Uppdaterad: 2021-03-01 05:20
Övervägande molnigt
Övervägande molnigt
 Vind från calm
Vind: Vindstilla
Temperatur: -3°C
Daggpunkt: -3°C
Luftfuktighet: 100%
Barometer: 1032 hPa
Clouds: Övervägande molnigt
Visibility: 1 km
Cloud details: Övervägande molnigt 91 m
2021/03/01 04:20 ESMK 010420Z AUTO 00000KT 0800 R01/P2000N R19/P2000N // BKN003/// M03/M03 Q1032
ESMS - Malmö/Sturup, Sweden
Distance from station: SSO 104km
Uppdaterad: 2021-03-01 05:20
Fog, Genommulet
Fog, Genommulet
 Vind från VSV
Vind: VSV 6 km/h
Temperatur: 0°C
Daggpunkt: 0°C
Luftfuktighet: 100%
Barometer: 1033 hPa
Summering: Fog
Clouds: Genommulet
Visibility: 0 km
Cloud details: Genommulet 30 m
2021/03/01 04:20 ESMS 010420Z 24003KT 0050 R17/0550N R35/0350N FG VV001 00/M00 Q1033
 
EKRK - Copenhagen/Roskilde, Denmark
Distance from station: SSV 108km
Uppdaterad: 2021-03-01 05:20
Mist, Delvis molnigt
Mist, Delvis molnigt
 Vind från V
Vind: V 7 km/h
Temperatur: 0°C
Wind Chill: -3°C
Daggpunkt: 0°C
Luftfuktighet: 100%
Barometer: 1033 hPa
Summering: Mist
Clouds: Delvis molnigt
Visibility: 5 km
Cloud details: Delvis molnigt 61 m
2021/03/01 04:20 EKRK 010420Z AUTO 26004KT 4700 BR SCT002/// M00/M00 Q1033
ESMX - Växjö/Kronoberg, Sweden
Distance from station: ONO 124km
Uppdaterad: 2021-03-01 05:20
Freezing fog, Genommulet
Freezing fog, Genommulet
 Vind från SV
Vind: SV 9 km/h
Temperatur: -1°C
Wind Chill: -4°C
Daggpunkt: -1°C
Luftfuktighet: 100%
Barometer: 1030 hPa
Summering: Freezing Fog
Clouds: Genommulet
Visibility: 0 km
Cloud details: Genommulet 30 m
2021/03/01 04:20 ESMX 010420Z AUTO 23005KT 0450 R01/P2000D R19/1100U FZFG OVC001/// M01/M01 Q1030
 
EKAH - Tirstrup, Denmark
Distance from station: V 141km
Uppdaterad: 2021-03-01 05:20
Övervägande molnigt
Övervägande molnigt
 Vind från V
Vind: V 15 km/h
Temperatur: 4°C
Wind Chill: 1°C
Daggpunkt: 3°C
Luftfuktighet: 93%
Barometer: 1033 hPa
Clouds: Övervägande molnigt
Visibility: 10 km
Cloud details: Övervägande molnigt 152 m
2021/03/01 04:20 EKAH 010420Z AUTO 27008KT 9999 BKN005/// 04/03 Q1033
ESGG - Göteborg/Landvetter, Sweden
Distance from station: NNV 142km
Uppdaterad: 2021-03-01 05:20
Freezing fog, Genommulet
Freezing fog, Genommulet
 Vind från SSV
Vind: SSV 15 km/h
Temperatur: 0°C
Wind Chill: -4°C
Daggpunkt: -1°C
Luftfuktighet: 93%
Barometer: 1029 hPa
Summering: Freezing Fog
Clouds: Genommulet
Visibility: 0 km
Cloud details: Genommulet 61 m
2021/03/01 04:20 ESGG 010420Z 21008KT 0200 R03/0550N R21/0600N FZFG VV002 M00/M01 Q1029 R21/09//95
 
ESDF - Ronneby, Sweden
Distance from station: O 147km
Uppdaterad: 2021-03-01 05:20
Klart
Klart
 Vind från V
Vind: V 7 km/h
Temperatur: -1°C
Wind Chill: -4°C
Daggpunkt: -1°C
Luftfuktighet: 100%
Barometer: 1031 hPa
Clouds: Klart
Visibility: 10 km
2021/03/01 04:20 ESDF 010420Z AUTO 28004KT 9999 NCD M01/M01 Q1031
ESGJ - Jönköping Airport, Sweden
Distance from station: NNO 164km
Uppdaterad: 2021-03-01 05:20
Klart
Klart
 Vind från SV
Vind: SV 13 km/h
Temperatur: 0°C
Wind Chill: -4°C
Daggpunkt: 0°C
Luftfuktighet: 100%
Barometer: 1028 hPa
Clouds: Klart
Visibility: 10 km
2021/03/01 04:20 ESGJ 010420Z AUTO 23007KT 9999 NCD 00/M00 Q1028
 
EKRN - Rönne, Denmark
Distance from station: SO 191km
Uppdaterad: 2021-03-01 05:20
Mist, Genommulet
Mist, Genommulet
 Vind från V
Vind: V 7 km/h
Temperatur: 3°C
Wind Chill: 1°C
Daggpunkt: 3°C
Luftfuktighet: 100%
Barometer: 1033 hPa
Summering: Mist
Clouds: Genommulet
Visibility: 3 km
Cloud details: Genommulet 91 m
2021/03/01 04:20 EKRN 010420Z AUTO 28004KT 3400 BR OVC003/// 03/03 Q1033
EKOD - Odense/Beldringe, Denmark
Distance from station: VSV 193km
Uppdaterad: 2021-02-28 14:50
NOT Current
Övervägande molnigt
Övervägande molnigt
 Vind från V
Vind: V 17 km/h
Temperatur: 7°C
Wind Chill: 4°C
Daggpunkt: 5°C
Luftfuktighet: 87%
Barometer: 1035 hPa
Clouds: Övervägande molnigt
Visibility: 10 km
Cloud details: Few Clouds 366 m
Övervägande molnigt 457 m
2021/02/28 13:50 EKOD 281350Z 27009KT 9999 FEW012 BKN015 07/05 Q1035
 
EKYT - AAlborg, Denmark
Distance from station: VNV 199km
Uppdaterad: 2021-03-01 05:20
Klart
Klart
 Vind från VSV
Vind: VSV 17 km/h
Temperatur: 3°C
Wind Chill: -1°C
Daggpunkt: 2°C
Luftfuktighet: 93%
Barometer: 1032 hPa
Clouds: Klart
Visibility: 10 km
2021/03/01 04:20 EKYT 010420Z AUTO 24009KT 9999 NCD 03/02 Q1032
ESMQ - Kalmar, Sweden
Distance from station: O 211km
Uppdaterad: 2021-03-01 05:20
Klart
Klart
 Vind från S
Vind: S 7 km/h
Temperatur: -2°C
Wind Chill: -6°C
Daggpunkt: -2°C
Luftfuktighet: 100%
Barometer: 1030 hPa
Clouds: Klart
Visibility: 10 km
2021/03/01 04:20 ESMQ 010420Z AUTO 18004KT 9999 R16///// R34/P1500N NCD M02/M02 Q1030
 
ESGT - Trollhättan, Sweden
Distance from station: N 212km
Uppdaterad: 2021-03-01 05:20
Fog, Genommulet
Fog, Genommulet
 Vind från SSV
Vind: SSV 7 km/h
Temperatur: 1°C
Wind Chill: -2°C
Daggpunkt: 0°C
Luftfuktighet: 93%
Barometer: 1029 hPa
Summering: Fog
Clouds: Genommulet
Visibility: 1 km
Cloud details: Genommulet 30 m
2021/03/01 04:20 ESGT 010420Z AUTO 20004KT 0500 R15/1600N R33/P2000N FG OVC001/// 01/00 Q1029